Terminal Aerodrome Forecast
Issued by NWS

Home | Current Version | Previous Version | Text Only | Print | Product List | Glossary On
Versions: 1 2 3 4 5 6 7 8 9 10 11 12 13 14 15
000
FTPA31 PHFO 281130
TAFHLI
TAF
PHLI 281130Z 2812/2912 04010KT P6SM VCSH SCT025 BKN040
      TEMPO 2812/2815 5SM -SHRA BKN020
     FM281500 04009KT 5SM -SHRA BKN020 BKN040
      TEMPO 2815/2819 3SM SHRA BR BKN015 OVC030
     FM282000 05012G20KT 5SM -SHRA BKN025 OVC050=

USA.gov is the U.S. government's official web portal to all federal, state and local government web resources and services.